This is the latest recevied weather packets stored in our database for station/object N1PRS-9. If no packets are shown the sender has not sent any weather packets the latest 10 day(s).
| Time | Temp. | Humidity | Pressure | Rain* | Wind** | Luminosity | Snow |
|---|---|---|---|---|---|---|---|
| 1777369233 | 4.44° C | 88% | 1022.5 hPa | 0 mm | - | 0 W/m² | - |
| 1777367760 | 4.44° C | 89% | 1022.6 hPa | 0 mm | - | 0 W/m² | - |
| 1777366845 | 4.44° C | 89% | 1022.5 hPa | 0 mm | - | 0 W/m² | - |
| 1777364732 | 4.44° C | 87% | 1022.7 hPa | 0 mm | - | 0 W/m² | - |
| 1777364142 | 5° C | 87% | 1022.7 hPa | 0 mm | - | 0 W/m² | - |
| 1777363532 | 5° C | 86% | 1022.5 hPa | 0 mm | - | 0 W/m² | - |
| 1777363247 | 5° C | 86% | 1022.5 hPa | 0 mm | - | 0 W/m² | - |
| 1777362932 | 5° C | 86% | 1022.5 hPa | 0 mm | - | 0 W/m² | - |
| 1777361730 | 5° C | 84% | 1022.4 hPa | 0 mm | - | 0 W/m² | - |
| 1777360831 | 5.56° C | 84% | 1022.4 hPa | 0 mm | - | 0 W/m² | - |
| 1777356945 | 6.67° C | 80% | 1022.3 hPa | 0 mm | - | 0 W/m² | - |
| 1777352734 | 7.22° C | 76% | 1023.1 hPa | 0 mm | - | 0 W/m² | - |
| 1777352448 | 7.22° C | 76% | 1023.2 hPa | 0 mm | - | 0 W/m² | - |
| 1777350933 | 8.33° C | 73% | 1023.9 hPa | 0 mm | - | 0 W/m² | - |
| 1777349433 | 8.89° C | 70% | 1024.4 hPa | 0 mm | - | 0 W/m² | - |
| 1777347945 | 8.89° C | 69% | 1024.4 hPa | 0 mm | - | 0 W/m² | - |
| 1777347044 | 9.44° C | 68% | 1024.7 hPa | 0 mm | - | 0 W/m² | - |
| 1777345250 | 10° C | 65% | 1024.9 hPa | 0 mm | - | 0 W/m² | - |
| 1777343734 | 10.56° C | 62% | 1024.8 hPa | 0 mm | - | 0 W/m² | - |
| 1777343444 | 10.56° C | 62% | 1024.8 hPa | 0 mm | - | 0 W/m² | - |
| 1777341031 | 12.22° C | 57% | 1025 hPa | 0 mm | - | 0 W/m² | - |
| 1777340431 | 12.22° C | 56% | 1025 hPa | 0 mm | - | 0 W/m² | - |
| 1777339231 | 13.33° C | 54% | 1024.8 hPa | 0 mm | - | 0 W/m² | - |
| 1777338331 | 13.33° C | 52% | 1024.6 hPa | 0 mm | - | 0 W/m² | - |
| 1777335035 | 15° C | 48% | 1024 hPa | 0 mm | - | 0 W/m² | - |
* Rain latest hour (hover to see other rain measurements)
** Current wind speed in m/s (hover to see current wind gust speed)